createdAt,value
2023-04-04T00:04:32.500Z,54.50
2023-04-04T00:11:34.271Z,54.84
2023-04-04T00:18:36.190Z,55.02
2023-04-04T00:25:37.937Z,54.98
2023-04-04T00:32:39.524Z,54.32
2023-04-04T00:39:41.140Z,54.28
2023-04-04T00:46:42.678Z,55.38
2023-04-04T00:53:44.857Z,55.45
2023-04-04T01:00:46.515Z,54.39
2023-04-04T01:07:49.162Z,55.12
2023-04-04T01:14:51.129Z,54.99
2023-04-04T01:21:52.903Z,55.04
2023-04-04T01:28:55.380Z,54.58
2023-04-04T01:36:10.976Z,54.91
2023-04-04T01:43:13.260Z,54.91
2023-04-04T01:50:17.111Z,55.11
2023-04-04T01:57:18.877Z,55.64
2023-04-04T02:04:21.133Z,55.85
2023-04-04T02:11:23.143Z,56.02
2023-04-04T02:18:25.924Z,56.65
2023-04-04T02:25:27.823Z,57.16
2023-04-04T02:32:29.359Z,57.34
2023-04-04T02:39:31.188Z,57.84
2023-04-04T02:46:34.577Z,58.01
2023-04-04T02:53:40.242Z,58.28
2023-04-04T03:01:06.550Z,58.65
2023-04-04T03:08:12.104Z,58.74
2023-04-04T03:15:14.454Z,58.96
2023-04-04T03:22:16.496Z,58.98
2023-04-04T03:29:18.415Z,59.24
2023-04-04T03:36:21.062Z,59.31
2023-04-04T03:43:24.533Z,59.60
2023-04-04T03:50:26.298Z,59.72
2023-04-04T03:57:28.199Z,60.08
2023-04-04T04:04:29.854Z,60.49
2023-04-04T04:11:31.497Z,60.60
2023-04-04T04:18:34.844Z,60.77
2023-04-04T04:25:37.265Z,60.96
2023-04-04T04:32:51.505Z,60.84
2023-04-04T04:39:57.220Z,61.33
2023-04-04T04:47:09.984Z,61.80
2023-04-04T04:54:11.845Z,61.82
2023-04-04T05:01:15.823Z,62.23
2023-04-04T05:08:17.572Z,62.32
2023-04-04T05:15:41.965Z,63.21
2023-04-04T05:22:44.391Z,62.93
2023-04-04T05:29:48.468Z,62.77
2023-04-04T05:36:51.018Z,62.52
2023-04-04T05:43:52.916Z,62.31
2023-04-04T05:50:58.052Z,62.55
2023-04-04T05:58:13.677Z,62.40
2023-04-04T06:05:23.736Z,62.74
2023-04-04T06:12:25.601Z,62.32
2023-04-04T06:19:28.148Z,62.49
2023-04-04T06:26:30.226Z,62.40
2023-04-04T06:33:32.727Z,62.62
2023-04-04T06:40:35.375Z,62.59
2023-04-04T06:47:37.941Z,62.77
2023-04-04T06:54:40.545Z,61.54
2023-04-04T07:01:43.208Z,59.55
2023-04-04T07:08:44.818Z,58.66
2023-04-04T07:15:50.123Z,58.32
2023-04-04T07:22:51.781Z,56.06
2023-04-04T07:29:53.416Z,55.33
2023-04-04T07:36:55.144Z,54.56
2023-04-04T07:43:56.767Z,52.81
2023-04-04T07:51:00.199Z,50.60
2023-04-04T07:58:01.718Z,48.79
2023-04-04T08:05:03.466Z,48.52
2023-04-04T08:12:07.816Z,45.47
2023-04-04T08:19:09.745Z,45.31
2023-04-04T08:26:11.875Z,42.67
2023-04-04T08:33:13.422Z,42.41
2023-04-04T08:40:15.110Z,40.17
2023-04-04T08:47:16.698Z,39.55
2023-04-04T08:54:18.324Z,38.73
2023-04-04T09:01:20.039Z,39.18
2023-04-04T09:08:23.726Z,36.06
2023-04-04T09:15:25.719Z,33.37
2023-04-04T09:22:27.355Z,36.15
2023-04-04T09:29:28.898Z,35.59
2023-04-04T09:36:31.430Z,35.06
2023-04-04T09:43:34.397Z,35.18
2023-04-04T09:50:37.971Z,35.12
2023-04-04T09:57:40.867Z,35.82
2023-04-04T10:04:43.691Z,36.61
2023-04-04T10:11:47.078Z,34.40
2023-04-04T10:18:48.619Z,34.43
2023-04-04T10:25:50.468Z,33.20
2023-04-04T10:33:02.517Z,31.19
2023-04-04T10:40:11.004Z,28.67
2023-04-04T10:47:17.240Z,28.21
2023-04-04T10:54:18.793Z,26.63
2023-04-04T11:01:22.160Z,29.05
2023-04-04T11:08:26.206Z,28.79
2023-04-04T11:15:27.732Z,26.38
2023-04-04T11:22:29.661Z,26.24
2023-04-04T11:29:50.030Z,26.02
2023-04-04T11:36:52.014Z,24.46
2023-04-04T11:43:53.517Z,24.58
2023-04-04T11:50:55.167Z,24.79
2023-04-04T11:57:59.535Z,24.22
2023-04-04T12:05:01.197Z,23.05
2023-04-04T12:12:03.585Z,23.89
2023-04-04T12:19:05.109Z,23.66
2023-04-04T12:26:07.065Z,24.94
2023-04-04T12:33:09.751Z,25.07
2023-04-04T12:40:11.663Z,25.79
2023-04-04T12:47:15.801Z,26.28
2023-04-04T12:54:31.444Z,25.92
2023-04-04T13:01:33.216Z,24.81
2023-04-04T13:08:34.987Z,25.39
2023-04-04T13:15:52.203Z,24.80
2023-04-04T13:22:58.105Z,23.87
2023-04-04T13:29:59.692Z,23.03
2023-04-04T13:37:01.363Z,23.75
2023-04-04T13:44:02.955Z,24.80
2023-04-04T13:51:04.618Z,25.50
2023-04-04T13:58:06.438Z,24.49
2023-04-04T14:05:08.449Z,23.68
2023-04-04T14:12:10.184Z,22.58
2023-04-04T14:19:11.741Z,23.42
2023-04-04T14:26:13.578Z,21.59
2023-04-04T14:33:15.122Z,22.08
2023-04-04T14:40:16.812Z,22.51
2023-04-04T14:47:18.352Z,24.09
2023-04-04T14:54:19.855Z,24.62
2023-04-04T15:01:22.754Z,24.24
2023-04-04T15:08:24.447Z,24.31
2023-04-04T15:15:29.091Z,24.26
2023-04-04T15:22:30.727Z,24.05
2023-04-04T15:29:32.233Z,24.87
2023-04-04T15:36:34.140Z,25.38
2023-04-04T15:43:36.487Z,26.17
2023-04-04T15:50:38.239Z,26.13
2023-04-04T15:57:40.447Z,26.45
2023-04-04T16:04:41.992Z,27.25
2023-04-04T16:11:43.553Z,28.11
2023-04-04T16:18:45.316Z,28.49
2023-04-04T16:25:47.103Z,28.23
2023-04-04T16:32:49.180Z,28.47
2023-04-04T16:39:51.910Z,28.84
2023-04-04T16:46:53.532Z,29.35
2023-04-04T16:53:56.181Z,29.52
2023-04-04T17:00:57.774Z,31.19
2023-04-04T17:07:59.566Z,30.94
2023-04-04T17:15:01.100Z,31.49
2023-04-04T17:22:03.089Z,31.85
2023-04-04T17:29:04.625Z,32.61
2023-04-04T17:36:06.340Z,32.40
2023-04-04T17:43:07.867Z,32.77
2023-04-04T17:50:09.681Z,32.88
2023-04-04T17:57:11.584Z,33.28
2023-04-04T18:04:13.164Z,33.33
2023-04-04T18:11:14.773Z,33.60
2023-04-04T18:18:16.848Z,33.74
2023-04-04T18:25:18.609Z,34.28
2023-04-04T18:32:25.360Z,35.09
2023-04-04T18:39:27.561Z,34.99
2023-04-04T18:46:29.285Z,35.18
2023-04-04T18:53:30.879Z,35.42
2023-04-04T19:00:32.423Z,35.63
2023-04-04T19:07:34.528Z,35.98
2023-04-04T19:14:36.344Z,36.12
2023-04-04T19:21:37.884Z,36.51
2023-04-04T19:28:39.413Z,36.95
2023-04-04T19:35:48.564Z,37.19
2023-04-04T19:42:50.112Z,37.44
2023-04-04T19:49:51.732Z,38.01
2023-04-04T19:57:06.789Z,38.67
2023-04-04T20:04:09.083Z,38.64
2023-04-04T20:11:11.575Z,38.42
2023-04-04T20:18:23.263Z,38.60
2023-04-04T20:25:40.875Z,38.08
2023-04-04T20:32:43.233Z,37.80
2023-04-04T20:39:54.396Z,37.80
2023-04-04T20:46:55.984Z,39.51
2023-04-04T20:53:59.402Z,38.12
2023-04-04T21:01:01.322Z,38.22
2023-04-04T21:08:03.155Z,37.66
2023-04-04T21:15:06.038Z,37.91
2023-04-04T21:22:07.746Z,37.96
2023-04-04T21:29:21.380Z,38.37
2023-04-04T21:36:27.534Z,38.30
2023-04-04T21:43:29.024Z,38.54
2023-04-04T21:50:30.529Z,38.77
2023-04-04T21:57:32.056Z,39.41
2023-04-04T22:04:33.645Z,39.32
2023-04-04T22:11:38.668Z,39.84
2023-04-04T22:18:42.827Z,39.69
2023-04-04T22:25:44.439Z,40.11
2023-04-04T22:32:46.200Z,40.15
2023-04-04T22:39:51.023Z,39.98
2023-04-04T22:46:52.556Z,40.30
2023-04-04T22:53:57.646Z,39.83
2023-04-04T23:00:59.202Z,40.16
2023-04-04T23:08:02.338Z,40.56
2023-04-04T23:15:05.224Z,40.57
2023-04-04T23:22:07.253Z,40.73
2023-04-04T23:29:09.746Z,40.94
2023-04-04T23:36:11.306Z,41.13
2023-04-04T23:43:12.847Z,41.23
2023-04-04T23:50:14.370Z,40.98
2023-04-04T23:57:16.950Z,41.72
